Mao, Spain
Current Conditions -  °F | °C
As of 5:00 PM on Wednesday 22 Oct 2014 (Local Time) from LEMH Reporting Station
Few Clouds Few Clouds  
Wind Chill: 66°   Ceiling: Unl
Heat Index: 66°   Visibility: 6mi
Dew Point: 43°   Wind: 28mph
Humidity: 43%   Direction: 360°N
Pressure: 30.18"   Gusts: NA
Location:  39.89°N, 4.27°E
Report Text: LEMH 221500Z 36024KT 330V030 9999 FEW030 19/06 Q1022
Loading
Personal Weather Stations






























Interactive Weather Map
Tropical Storm Tracking
New forecast layout! Learn more

10-Day Weather Forecast

Advertisements
Track Severe Weather on mobile